Time;durP1;ratioP1;P1;durP2;ratioP2;P2;SDS_P1;SDS_P2;PMS_P1;PMS_P2;Temp;Humidity;BMP_temperature;BMP_pressure;BME280_temperature;BME280_humidity;BME280_pressure;Samples;Min_cycle;Max_cycle;Signal;HPM_P1;HPM_P2
2020/12/21 00:00:10;;;;;;;0.17;0.17;;;;;;;1.53;100.00;99484.38;4878781;29;20063;-76
2020/12/21 00:03:13;;;;;;;8.98;0.68;;;;;;;1.58;100.00;99477.63;4878844;29;20118;-77
2020/12/21 00:06:16;;;;;;;0.38;0.38;;;;;;;1.61;100.00;99482.25;4878973;29;20390;-77
2020/12/21 00:09:20;;;;;;;7.63;0.85;;;;;;;1.65;100.00;99474.69;4878705;29;20073;-77
2020/12/21 00:12:23;;;;;;;0.10;0.10;;;;;;;1.76;100.00;99475.25;4878216;29;20505;-77
2020/12/21 00:15:26;;;;;;;4.97;0.52;;;;;;;1.87;100.00;99486.78;4878406;29;20044;-77
2020/12/21 00:18:29;;;;;;;3.92;1.48;;;;;;;1.95;100.00;99471.72;4878241;29;20044;-77
2020/12/21 00:21:32;;;;;;;1.50;0.45;;;;;;;2.03;100.00;99467.59;4878731;29;20044;-77
2020/12/21 00:24:35;;;;;;;0.30;0.30;;;;;;;2.06;100.00;99473.00;4878564;29;20060;-77
2020/12/21 00:27:39;;;;;;;0.20;0.20;;;;;;;2.10;100.00;99478.44;4877780;29;20521;-77
2020/12/21 00:30:41;;;;;;;1.55;0.47;;;;;;;2.12;100.00;99476.03;4878605;29;20109;-77
2020/12/21 00:33:44;;;;;;;0.22;0.22;;;;;;;2.12;100.00;99470.53;4878587;29;20517;-76
2020/12/21 00:36:50;;;;;;;2.10;0.85;;;;;;;2.13;100.00;99480.31;4878474;29;20052;-76
2020/12/21 00:39:53;;;;;;;0.50;0.50;;;;;;;2.13;100.00;99483.03;4878566;29;20048;-77
2020/12/21 00:42:56;;;;;;;0.95;0.90;;;;;;;2.16;100.00;99482.19;4878269;29;20421;-77
2020/12/21 00:45:59;;;;;;;1.23;0.47;;;;;;;2.25;100.00;99468.66;4878748;29;20071;-77
2020/12/21 00:49:03;;;;;;;0.20;0.20;;;;;;;2.26;100.00;99470.97;4878352;29;20076;-77
2020/12/21 00:52:06;;;;;;;1.38;1.02;;;;;;;2.25;100.00;99469.41;4878473;29;20402;-76
2020/12/21 00:55:09;;;;;;;29.33;1.42;;;;;;;2.26;100.00;99470.97;4878677;29;20060;-77
2020/12/21 00:58:12;;;;;;;9.68;0.80;;;;;;;2.25;100.00;99463.91;4878434;29;20067;-77
2020/12/21 01:01:16;;;;;;;0.98;0.40;;;;;;;2.23;100.00;99460.06;4877954;29;20048;-77
2020/12/21 01:04:19;;;;;;;1.65;0.70;;;;;;;2.26;100.00;99468.22;4878141;29;20105;-76
2020/12/21 01:07:22;;;;;;;0.38;0.22;;;;;;;2.25;100.00;99446.69;4878370;29;20089;-77
2020/12/21 01:10:25;;;;;;;1.95;0.60;;;;;;;2.19;100.00;99449.16;4878315;29;20174;-77
2020/12/21 01:13:28;;;;;;;3.15;0.70;;;;;;;2.15;100.00;99448.47;4878256;29;20070;-77
2020/12/21 01:16:31;;;;;;;0.43;0.20;;;;;;;2.10;100.00;99451.72;4859741;29;20049;-77
2020/12/21 01:19:34;;;;;;;0.30;0.30;;;;;;;2.06;100.00;99447.50;4859625;29;20104;-77
2020/12/21 01:22:37;;;;;;;0.95;0.52;;;;;;;1.99;100.00;99439.44;4859612;29;20087;-77
2020/12/21 01:25:40;;;;;;;1.50;0.88;;;;;;;1.95;100.00;99430.53;4861644;29;20121;-76
2020/12/21 01:28:43;;;;;;;2.40;0.73;;;;;;;1.89;100.00;99423.97;4862943;29;20052;-76
2020/12/21 01:31:46;;;;;;;0.65;0.65;;;;;;;1.76;100.00;99418.38;4863132;29;20109;-76
2020/12/21 01:34:49;;;;;;;0.20;0.20;;;;;;;1.72;100.00;99419.66;4862859;29;20045;-77
2020/12/21 01:37:52;;;;;;;0.52;0.30;;;;;;;1.70;100.00;99414.59;4862810;29;20084;-76
2020/12/21 01:40:55;;;;;;;2.60;0.70;;;;;;;1.67;100.00;99420.94;4862773;29;20056;-76
2020/12/21 01:43:57;;;;;;;0.10;0.10;;;;;;;1.64;100.00;99418.28;4862316;29;20548;-78
2020/12/21 01:47:00;;;;;;;0.20;0.20;;;;;;;1.58;100.00;99415.28;4862617;29;20051;-76
2020/12/21 01:50:05;;;;;;;3.15;0.93;;;;;;;1.58;100.00;99412.53;4862599;29;20411;-77
2020/12/21 01:53:10;;;;;;;1.08;0.63;;;;;;;1.59;100.00;99418.78;4862632;29;20467;-77
2020/12/21 01:56:16;;;;;;;1.20;0.93;;;;;;;1.57;100.00;99410.19;4862375;29;20418;-77
2020/12/21 01:59:20;;;;;;;0.70;0.43;;;;;;;1.51;100.00;99394.25;4862499;29;20048;-77
2020/12/21 02:02:23;;;;;;;0.98;0.40;;;;;;;1.50;100.00;99391.91;4862483;29;20097;-77
2020/12/21 02:05:25;;;;;;;0.98;0.35;;;;;;;1.47;100.00;99390.78;4862103;29;20049;-77
2020/12/21 02:08:29;;;;;;;0.45;0.45;;;;;;;1.48;100.00;99386.88;4862228;29;20044;-77
2020/12/21 02:11:32;;;;;;;0.90;0.30;;;;;;;1.48;100.00;99373.16;4862041;29;20100;-77
2020/12/21 02:14:35;;;;;;;1.05;0.25;;;;;;;1.48;100.00;99373.16;4867034;29;20051;-77
2020/12/21 02:17:37;;;;;;;0.50;0.35;;;;;;;1.43;100.00;99376.38;4880626;29;20048;-77
2020/12/21 02:20:40;;;;;;;19.48;1.75;;;;;;;1.38;100.00;99365.94;4880507;29;20048;-77
2020/12/21 02:23:43;;;;;;;0.10;0.10;;;;;;;1.36;100.00;99354.63;4880577;29;20519;-76
2020/12/21 02:26:45;;;;;;;1.30;0.60;;;;;;;1.33;100.00;99355.47;4880502;29;20112;-77
2020/12/21 02:29:48;;;;;;;0.40;0.40;;;;;;;1.34;100.00;99339.78;4880208;29;20205;-77
2020/12/21 02:32:51;;;;;;;11.18;0.45;;;;;;;1.38;100.00;99341.25;4879525;29;20084;-77
2020/12/21 02:35:53;;;;;;;0.88;0.30;;;;;;;1.39;100.00;99333.78;4879973;29;20079;-77
2020/12/21 02:38:56;;;;;;;0.17;0.17;;;;;;;1.44;100.00;99322.31;4880280;29;20139;-77
2020/12/21 02:41:59;;;;;;;0.95;0.57;;;;;;;1.48;100.00;99334.75;4880271;29;20398;-77
2020/12/21 02:45:03;;;;;;;2.08;1.75;;;;;;;1.46;100.00;99330.88;4880261;29;20409;-77
2020/12/21 02:48:06;;;;;;;1.05;0.43;;;;;;;1.45;100.00;99324.63;4880273;29;20180;-77
2020/12/21 02:51:10;;;;;;;0.98;0.77;;;;;;;1.47;100.00;99322.22;4880040;29;20406;-77
2020/12/21 02:54:13;;;;;;;0.47;0.35;;;;;;;1.52;100.00;99318.97;4880366;29;20466;-77
2020/12/21 02:57:16;;;;;;;0.65;0.57;;;;;;;1.59;100.00;99322.75;4879890;29;20080;-77
2020/12/21 03:00:18;;;;;;;0.10;0.10;;;;;;;1.66;100.00;99317.88;4880032;29;20092;-77
2020/12/21 03:03:21;;;;;;;1.75;1.05;;;;;;;1.79;100.00;99315.97;4879950;29;20100;-77
2020/12/21 03:06:24;;;;;;;1.40;0.52;;;;;;;1.93;100.00;99303.84;4879832;29;20518;-77
2020/12/21 03:09:27;;;;;;;1.75;0.30;;;;;;;2.05;100.00;99300.44;4879502;29;20451;-77
2020/12/21 03:12:30;;;;;;;5.47;1.00;;;;;;;2.19;100.00;99303.56;4879712;29;20402;-77
2020/12/21 03:15:33;;;;;;;0.20;0.13;;;;;;;2.29;100.00;99299.00;4879521;29;20181;-77
2020/12/21 03:18:35;;;;;;;6.38;1.35;;;;;;;2.35;100.00;99291.00;4879298;29;20056;-77
2020/12/21 03:21:38;;;;;;;0.40;0.22;;;;;;;2.43;100.00;99286.84;4879276;29;20543;-76
2020/12/21 03:24:41;;;;;;;0.22;0.13;;;;;;;2.52;100.00;99290.50;4877215;29;20150;-76
2020/12/21 03:27:44;;;;;;;1.65;0.50;;;;;;;2.55;100.00;99286.91;4879019;29;20056;-78
2020/12/21 03:30:47;;;;;;;6.90;0.75;;;;;;;2.58;100.00;99277.78;4878917;29;20554;-77
2020/12/21 03:33:50;;;;;;;1.38;0.63;;;;;;;2.65;100.00;99266.59;4879123;29;20044;-77
2020/12/21 03:36:53;;;;;;;1.27;0.45;;;;;;;2.69;100.00;99261.75;4878125;29;20083;-77
2020/12/21 03:39:56;;;;;;;0.98;0.60;;;;;;;2.72;100.00;99255.41;4879379;29;20433;-77
2020/12/21 03:42:58;;;;;;;0.57;0.57;;;;;;;2.75;100.00;99243.50;4879040;29;20067;-81
2020/12/21 03:46:01;;;;;;;0.32;0.32;;;;;;;2.79;100.00;99238.69;4860761;29;20075;-78
2020/12/21 03:49:04;;;;;;;6.22;0.50;;;;;;;2.80;100.00;99244.94;4859741;29;20088;-78
2020/12/21 03:52:07;;;;;;;0.50;0.50;;;;;;;2.81;100.00;99235.50;4860494;29;20517;-78
2020/12/21 03:55:10;;;;;;;11.38;1.30;;;;;;;2.84;100.00;99229.13;4848894;29;20136;-78
2020/12/21 03:58:14;;;;;;;0.90;0.85;;;;;;;2.86;100.00;99216.47;4860732;29;20145;-78
2020/12/21 04:01:16;;;;;;;1.05;0.30;;;;;;;2.91;100.00;99218.69;4860594;29;20111;-77
2020/12/21 04:04:19;;;;;;;1.50;0.40;;;;;;;2.95;100.00;99216.59;4860613;29;20052;-78
2020/12/21 04:07:22;;;;;;;1.08;1.00;;;;;;;2.98;100.00;99212.19;4849039;29;20137;-81
2020/12/21 04:10:25;;;;;;;2.30;1.00;;;;;;;3.00;100.00;99204.28;4860830;29;20060;-78
2020/12/21 04:13:28;;;;;;;0.22;0.20;;;;;;;3.03;100.00;99198.66;4878724;29;20054;-78
2020/12/21 04:16:31;;;;;;;3.20;0.82;;;;;;;3.05;100.00;99204.47;4860345;29;20471;-76
2020/12/21 04:19:33;;;;;;;3.65;1.40;;;;;;;3.06;100.00;99197.78;4860220;29;20057;-76
2020/12/21 04:22:36;;;;;;;0.82;0.55;;;;;;;3.05;100.00;99190.72;4860397;29;20102;-76
2020/12/21 04:25:39;;;;;;;2.78;0.85;;;;;;;3.12;100.00;99183.50;4859455;29;20048;-76
2020/12/21 04:28:42;;;;;;;5.35;1.27;;;;;;;3.17;100.00;99169.16;4859829;29;20045;-76
2020/12/21 04:31:45;;;;;;;12.38;1.17;;;;;;;3.19;100.00;99172.22;4859933;29;20056;-76
2020/12/21 04:34:48;;;;;;;2.72;0.40;;;;;;;3.19;100.00;99158.47;4859976;29;20625;-74
2020/12/21 04:37:51;;;;;;;3.65;0.55;;;;;;;3.24;100.00;99142.19;4859800;29;20048;-76
2020/12/21 04:40:57;;;;;;;8.85;0.95;;;;;;;3.28;100.00;99139.31;4859978;29;20056;-76
2020/12/21 04:44:01;;;;;;;2.85;1.08;;;;;;;3.28;100.00;99131.06;4859582;29;20049;-77
2020/12/21 04:47:05;;;;;;;3.88;0.70;;;;;;;3.27;100.00;99118.53;4859185;29;20048;-76
2020/12/21 04:50:11;;;;;;;11.05;1.83;;;;;;;3.28;100.00;99114.56;4859948;29;20053;-76
2020/12/21 04:53:14;;;;;;;2.38;1.00;;;;;;;3.26;100.00;99101.25;4860162;29;20048;-76
2020/12/21 04:56:20;;;;;;;2.15;1.27;;;;;;;3.27;100.00;99102.78;4859562;29;20491;-76
2020/12/21 04:59:23;;;;;;;9.60;1.30;;;;;;;3.28;100.00;99103.53;4861472;29;20052;-76
2020/12/21 05:02:26;;;;;;;0.98;0.80;;;;;;;3.31;100.00;99099.91;4863780;29;20052;-76
2020/12/21 05:05:33;;;;;;;11.68;1.77;;;;;;;3.33;100.00;99092.00;4863436;29;20072;-75
2020/12/21 05:08:36;;;;;;;2.72;0.77;;;;;;;3.34;100.00;99097.03;4863456;29;20052;-76
2020/12/21 05:11:39;;;;;;;0.47;0.22;;;;;;;3.38;100.00;99086.66;4863414;29;20053;-76
2020/12/21 05:14:46;;;;;;;0.40;0.30;;;;;;;3.44;100.00;99081.38;4869364;29;20715;-76
2020/12/21 05:17:49;;;;;;;1.90;1.00;;;;;;;3.47;100.00;99073.00;4881611;29;20529;-76
2020/12/21 05:20:57;;;;;;;0.50;0.40;;;;;;;3.50;100.00;99066.59;4881657;29;20529;-76
2020/12/21 05:24:01;;;;;;;2.28;0.63;;;;;;;3.54;100.00;99060.97;4881764;29;20114;-76
2020/12/21 05:27:14;;;;;;;3.20;0.70;;;;;;;3.58;100.00;99042.34;4881755;29;20047;-77
2020/12/21 05:30:18;;;;;;;7.43;1.13;;;;;;;3.62;100.00;99029.97;4881636;29;20093;-76
2020/12/21 05:33:22;;;;;;;0.40;0.40;;;;;;;3.64;100.00;99015.75;4881677;29;20044;-76
2020/12/21 05:36:25;;;;;;;3.45;0.75;;;;;;;3.69;100.00;99017.94;4881681;29;20096;-75
2020/12/21 05:39:27;;;;;;;1.75;0.90;;;;;;;3.72;100.00;99017.06;4881343;29;20101;-76
2020/12/21 05:42:30;;;;;;;1.52;1.35;;;;;;;3.78;100.00;99009.75;4881488;29;20139;-76
2020/12/21 05:45:33;;;;;;;7.30;0.65;;;;;;;3.86;100.00;99000.00;4881142;29;20056;-76
2020/12/21 05:48:42;;;;;;;0.55;0.30;;;;;;;3.93;100.00;98994.22;4881207;29;20080;-76
2020/12/21 05:51:47;;;;;;;1.13;0.75;;;;;;;4.00;100.00;98979.41;4880858;29;20573;-76
2020/12/21 05:54:51;;;;;;;2.40;0.77;;;;;;;4.05;100.00;98962.31;4881060;29;20182;-76
2020/12/21 05:57:57;;;;;;;1.48;0.60;;;;;;;4.06;100.00;98956.34;4885364;29;20076;-78
2020/12/21 06:01:05;;;;;;;1.80;0.52;;;;;;;4.12;100.00;98949.00;4890553;29;20050;-78
2020/12/21 06:04:13;;;;;;;0.30;0.30;;;;;;;4.15;100.00;98942.59;4888666;29;20068;-77
2020/12/21 06:07:21;;;;;;;2.47;0.52;;;;;;;4.18;100.00;98949.19;4890298;29;20088;-77
2020/12/21 06:10:28;;;;;;;0.90;0.45;;;;;;;4.17;100.00;98937.41;4886780;29;20144;-77
2020/12/21 06:13:36;;;;;;;4.57;0.40;;;;;;;4.22;100.00;98949.81;4887178;29;20052;-78
2020/12/21 06:16:40;;;;;;;1.75;0.45;;;;;;;4.30;100.00;98946.31;4881152;29;20088;-78
2020/12/21 06:19:43;;;;;;;8.23;1.45;;;;;;;4.37;100.00;98931.47;4888476;29;20040;-78
2020/12/21 06:22:46;;;;;;;11.60;0.77;;;;;;;4.46;100.00;98920.47;4889707;29;20080;-78
2020/12/21 06:25:49;;;;;;;1.27;0.35;;;;;;;4.51;100.00;98915.13;4889979;29;20049;-78
2020/12/21 06:28:58;;;;;;;3.53;0.45;;;;;;;4.55;100.00;98910.22;4886110;29;20048;-78
2020/12/21 06:32:03;;;;;;;1.23;0.65;;;;;;;4.61;100.00;98911.13;4888219;29;20699;-79
2020/12/21 06:35:20;;;;;;;1.70;0.25;;;;;;;4.69;100.00;98894.28;4889628;29;20525;-78
2020/12/21 06:38:23;;;;;;;1.35;0.30;;;;;;;4.72;100.00;98887.88;4884705;29;20133;-77
2020/12/21 06:41:27;;;;;;;2.85;0.85;;;;;;;4.73;100.00;98895.69;4880462;29;20144;-81
2020/12/21 06:44:31;;;;;;;2.70;1.08;;;;;;;4.75;100.00;98886.94;4880465;29;20104;-81
2020/12/21 06:47:34;;;;;;;2.17;1.10;;;;;;;4.83;100.00;98879.91;4880222;29;20084;-82
2020/12/21 06:50:37;;;;;;;15.40;0.43;;;;;;;4.86;100.00;98867.94;4879800;29;20052;-80
2020/12/21 06:53:39;;;;;;;2.47;0.75;;;;;;;4.86;100.00;98860.44;4879938;29;20414;-82
2020/12/21 06:56:45;;;;;;;4.18;1.40;;;;;;;4.92;100.00;98852.28;4878950;29;20056;-81
2020/12/21 06:59:56;;;;;;;1.02;0.93;;;;;;;4.98;100.00;98842.94;4868122;29;20093;-81
2020/12/21 07:02:59;;;;;;;4.30;0.70;;;;;;;4.99;100.00;98836.22;4868571;29;20117;-82
2020/12/21 07:06:01;;;;;;;1.77;0.77;;;;;;;5.03;100.00;98833.28;4882172;29;20105;-81
2020/12/21 07:09:05;;;;;;;1.90;0.50;;;;;;;5.03;100.00;98834.03;4873801;29;20065;-80
2020/12/21 07:12:08;;;;;;;0.60;0.25;;;;;;;5.10;100.00;98830.19;4886118;29;20060;-80
2020/12/21 07:15:11;;;;;;;12.80;1.13;;;;;;;5.15;100.00;98821.31;4892216;29;20051;-81
2020/12/21 07:18:14;;;;;;;1.80;0.32;;;;;;;5.17;100.00;98807.81;4891631;29;20450;-81
2020/12/21 07:21:17;;;;;;;2.13;0.52;;;;;;;5.22;100.00;98801.66;4879601;29;20151;-81
2020/12/21 07:24:23;;;;;;;0.98;0.20;;;;;;;5.28;100.00;98794.28;4879869;29;20451;-81
2020/12/21 07:27:26;;;;;;;0.95;0.40;;;;;;;5.34;100.00;98792.41;4868097;29;20391;-82
2020/12/21 07:30:30;;;;;;;3.33;1.20;;;;;;;5.36;100.00;98779.69;4867803;29;20052;-82
2020/12/21 07:33:33;;;;;;;8.02;1.48;;;;;;;5.37;100.00;98783.97;4879547;29;20051;-82
2020/12/21 07:36:39;;;;;;;1.40;0.50;;;;;;;5.39;100.00;98778.00;4879213;29;20181;-82
2020/12/21 07:39:42;;;;;;;2.55;1.10;;;;;;;5.41;100.00;98764.47;4881276;29;20043;-83
2020/12/21 07:42:53;;;;;;;1.30;0.65;;;;;;;5.39;100.00;98755.91;4860875;29;20063;-84
2020/12/21 07:46:03;;;;;;;4.57;0.40;;;;;;;5.38;100.00;98751.59;4877848;29;20051;-82
2020/12/21 07:49:08;;;;;;;6.13;1.33;;;;;;;5.39;100.00;98740.09;4878996;29;20089;-81
2020/12/21 07:52:15;;;;;;;4.47;1.30;;;;;;;5.44;100.00;98727.63;4879412;29;20105;-81
2020/12/21 07:55:18;;;;;;;0.30;0.10;;;;;;;5.46;100.00;98714.13;4878833;29;20044;-80
2020/12/21 07:58:21;;;;;;;5.82;1.33;;;;;;;5.45;100.00;98709.84;4860452;29;20057;-80
2020/12/21 08:01:23;;;;;;;2.70;0.47;;;;;;;5.44;100.00;98694.50;4860014;29;20143;-81
2020/12/21 08:04:28;;;;;;;3.42;1.13;;;;;;;5.45;100.00;98695.28;4860254;29;20525;-78
2020/12/21 08:07:33;;;;;;;1.65;0.88;;;;;;;5.55;100.00;98691.22;4859707;29;20052;-79
2020/12/21 08:10:36;;;;;;;0.73;0.30;;;;;;;5.59;100.00;98689.81;4859954;29;20052;-79
2020/12/21 08:13:43;;;;;;;1.10;0.35;;;;;;;5.63;100.00;98678.59;4860526;29;20091;-79
2020/12/21 08:16:46;;;;;;;3.53;0.75;;;;;;;5.67;100.00;98679.97;4860141;29;20563;-80
2020/12/21 08:19:54;;;;;;;1.45;0.10;;;;;;;5.68;100.00;98675.94;4860237;29;20045;-79
2020/12/21 08:22:57;;;;;;;1.90;0.70;;;;;;;5.68;100.00;98673.19;4860186;29;20574;-80
2020/12/21 08:26:00;;;;;;;0.65;0.47;;;;;;;5.71;100.00;98666.72;4860101;29;20533;-80
2020/12/21 08:29:04;;;;;;;0.35;0.00;;;;;;;5.70;100.00;98664.41;4859903;29;20141;-79
2020/12/21 08:32:07;;;;;;;1.08;0.30;;;;;;;5.74;100.00;98657.50;4859685;29;20537;-78
2020/12/21 08:35:10;;;;;;;0.50;0.50;;;;;;;5.76;100.00;98651.50;4865398;29;20057;-79
2020/12/21 08:38:17;;;;;;;2.95;0.45;;;;;;;5.80;100.00;98638.28;4866190;29;20061;-80
2020/12/21 08:41:20;;;;;;;1.58;0.47;;;;;;;5.78;100.00;98630.44;4866054;29;20044;-79
2020/12/21 08:44:24;;;;;;;1.23;0.30;;;;;;;5.83;100.00;98626.25;4873458;29;20106;-80
2020/12/21 08:47:27;;;;;;;3.50;0.38;;;;;;;5.83;100.00;98618.75;4884279;29;20056;-81
2020/12/21 08:50:31;;;;;;;4.00;0.38;;;;;;;5.84;100.00;98611.25;4883484;29;20052;-79
2020/12/21 08:53:34;;;;;;;0.25;0.17;;;;;;;5.84;100.00;98611.25;4884803;29;20124;-83
2020/12/21 08:56:37;;;;;;;0.20;0.10;;;;;;;5.83;100.00;98604.16;4884475;29;20108;-82
2020/12/21 08:59:40;;;;;;;0.98;0.20;;;;;;;5.82;100.00;98603.44;4873346;29;20048;-80
2020/12/21 09:02:43;;;;;;;0.10;0.00;;;;;;;5.82;100.00;98589.63;4883722;29;20118;-83
2020/12/21 09:05:46;;;;;;;0.63;0.20;;;;;;;5.86;100.00;98576.41;4876180;29;20072;-82
2020/12/21 09:08:50;;;;;;;0.85;0.63;;;;;;;5.86;100.00;98562.59;4877509;29;20100;-80
2020/12/21 09:11:54;;;;;;;0.20;0.20;;;;;;;5.88;100.00;98571.16;4884142;29;20109;-81
2020/12/21 09:14:57;;;;;;;0.32;0.30;;;;;;;5.89;100.00;98563.66;4884340;29;20065;-81
2020/12/21 09:18:00;;;;;;;0.82;0.10;;;;;;;5.92;100.00;98560.69;4892943;29;20557;-80
2020/12/21 09:21:03;;;;;;;0.17;0.15;;;;;;;5.96;100.00;98550.19;4890231;29;20451;-80
2020/12/21 09:24:06;;;;;;;0.10;0.10;;;;;;;6.00;100.00;98545.25;4891022;29;20142;-81
2020/12/21 09:27:08;;;;;;;0.15;0.15;;;;;;;6.01;100.00;98538.50;4891614;29;20114;-82
2020/12/21 09:30:11;;;;;;;0.60;0.20;;;;;;;6.03;100.00;98536.00;4876235;29;20410;-79
2020/12/21 09:33:14;;;;;;;0.93;0.52;;;;;;;6.04;100.00;98531.25;4871956;29;20048;-80
2020/12/21 09:36:18;;;;;;;1.00;0.10;;;;;;;6.03;100.00;98524.19;4883986;29;20113;-81
2020/12/21 09:39:23;;;;;;;1.10;0.35;;;;;;;6.03;100.00;98524.97;4884516;29;20052;-81
2020/12/21 09:42:26;;;;;;;0.32;0.20;;;;;;;6.03;100.00;98508.38;4874682;29;20084;-79
2020/12/21 09:45:29;;;;;;;0.10;0.00;;;;;;;6.02;100.00;98501.31;4874500;29;20129;-79
2020/12/21 09:48:32;;;;;;;0.20;0.10;;;;;;;6.03;100.00;98500.09;4881060;29;20060;-79
2020/12/21 09:51:35;;;;;;;0.30;0.00;;;;;;;6.04;100.00;98501.59;4880700;29;20106;-79
2020/12/21 09:54:38;;;;;;;3.83;0.30;;;;;;;6.05;100.00;98497.59;4881043;29;20040;-79
2020/12/21 09:57:41;;;;;;;1.00;0.10;;;;;;;6.08;100.00;98493.91;4880695;29;20068;-81
2020/12/21 10:00:44;;;;;;;0.10;0.00;;;;;;;6.08;100.00;98493.13;4869674;29;20558;-81
2020/12/21 10:03:46;;;;;;;0.75;0.08;;;;;;;6.09;100.00;98478.81;4869434;29;20418;-82
2020/12/21 10:06:50;;;;;;;1.45;0.20;;;;;;;6.11;100.00;98465.28;4881183;29;20582;-84
2020/12/21 10:09:53;;;;;;;0.10;0.10;;;;;;;6.16;100.00;98460.31;4869472;29;20613;-84
2020/12/21 10:12:55;;;;;;;0.50;0.00;;;;;;;6.19;100.00;98460.13;4882217;29;20100;-86
2020/12/21 10:15:58;;;;;;;0.10;0.00;;;;;;;6.21;100.00;98462.41;4880940;29;20047;-87
2020/12/21 10:19:02;;;;;;;0.65;0.30;;;;;;;6.23;100.00;98460.69;4872315;29;20083;-79
2020/12/21 10:22:05;;;;;;;1.33;0.22;;;;;;;6.25;100.00;98458.22;4880816;29;20140;-80
2020/12/21 10:25:08;;;;;;;1.75;0.08;;;;;;;6.28;100.00;98440.66;4870180;29;20072;-80
2020/12/21 10:28:11;;;;;;;0.47;0.10;;;;;;;6.32;100.00;98434.94;4863317;29;20506;-80
2020/12/21 10:31:14;;;;;;;1.13;0.20;;;;;;;6.34;100.00;98426.94;4872132;29;20043;-80
2020/12/21 10:34:16;;;;;;;0.55;0.22;;;;;;;6.37;100.00;98412.88;4889442;29;20403;-81
2020/12/21 10:37:19;;;;;;;0.10;0.10;;;;;;;6.38;100.00;98417.19;4887768;29;20043;-80
2020/12/21 10:40:22;;;;;;;0.73;0.35;;;;;;;6.42;100.00;98409.44;4861764;29;20040;-81
2020/12/21 10:43:25;;;;;;;0.10;0.03;;;;;;;6.46;100.00;98409.22;4850518;29;20064;-80
2020/12/21 10:46:28;;;;;;;0.52;0.10;;;;;;;6.48;100.00;98409.50;4861657;29;20101;-81
2020/12/21 10:49:31;;;;;;;0.43;0.30;;;;;;;6.51;100.00;98405.78;4861530;29;20108;-82
2020/12/21 10:52:34;;;;;;;0.65;0.13;;;;;;;6.54;100.00;98396.53;4850081;29;20052;-81
2020/12/21 10:55:36;;;;;;;0.00;0.00;;;;;;;6.57;100.00;98401.84;4861364;29;20122;-81
2020/12/21 10:58:41;;;;;;;0.10;0.00;;;;;;;6.60;100.00;98394.59;4861433;29;20411;-80
2020/12/21 11:01:47;;;;;;;0.10;0.00;;;;;;;6.65;100.00;98391.13;4850207;29;20112;-80
2020/12/21 11:04:50;;;;;;;0.10;0.10;;;;;;;6.71;100.00;98394.75;4861396;29;20097;-80
2020/12/21 11:07:53;;;;;;;0.00;0.00;;;;;;;6.73;100.00;98381.19;4861296;29;20125;-81
2020/12/21 11:10:55;;;;;;;0.00;0.00;;;;;;;6.77;100.00;98381.72;4861232;29;20471;-82
2020/12/21 11:14:03;;;;;;;0.95;0.10;;;;;;;6.79;100.00;98366.16;4861193;29;20097;-82
2020/12/21 11:17:06;;;;;;;0.20;0.15;;;;;;;6.88;100.00;98359.72;4860621;29;20052;-80
2020/12/21 11:20:09;;;;;;;0.45;0.03;;;;;;;6.92;100.00;98351.97;4861091;29;20053;-81
2020/12/21 11:23:12;;;;;;;0.88;0.30;;;;;;;6.96;100.00;98360.81;4863330;29;20104;-80
2020/12/21 11:26:15;;;;;;;0.10;0.10;;;;;;;7.01;100.00;98357.34;4898333;29;20051;-81
2020/12/21 11:29:18;;;;;;;0.15;0.10;;;;;;;7.04;100.00;98361.88;4898338;29;20592;-82
2020/12/21 11:32:24;;;;;;;0.90;0.10;;;;;;;7.04;100.00;98350.81;4898178;29;20039;-82
2020/12/21 11:35:27;;;;;;;0.10;0.10;;;;;;;7.09;100.00;98363.19;4860979;29;20117;-82
2020/12/21 11:38:30;;;;;;;0.80;0.08;;;;;;;7.13;100.00;98350.66;4861102;29;20105;-82
2020/12/21 11:41:33;;;;;;;0.20;0.20;;;;;;;7.19;100.00;98340.38;4860747;29;20136;-82
2020/12/21 11:44:36;;;;;;;0.55;0.20;;;;;;;7.20;100.00;98341.94;4859966;29;20102;-82
2020/12/21 11:47:39;;;;;;;0.20;0.10;;;;;;;7.21;100.00;98337.88;4849164;29;20488;-82
2020/12/21 11:50:42;;;;;;;0.20;0.20;;;;;;;7.23;100.00;98329.88;4860881;29;20182;-83
2020/12/21 11:53:45;;;;;;;0.10;0.10;;;;;;;7.23;100.00;98318.81;4860546;29;20551;-79
2020/12/21 11:56:48;;;;;;;0.20;0.20;;;;;;;7.25;100.00;98319.06;4865150;29;20137;-79
2020/12/21 11:59:52;;;;;;;5.00;0.57;;;;;;;7.27;100.00;98313.03;4878412;29;20048;-81
2020/12/21 12:02:55;;;;;;;10.07;1.88;;;;;;;7.31;100.00;98291.41;4866998;29;20048;-81
2020/12/21 12:05:58;;;;;;;4.13;0.20;;;;;;;7.36;100.00;98288.69;4879132;29;20047;-80
2020/12/21 12:09:01;;;;;;;4.30;0.60;;;;;;;7.38;100.00;98280.66;4878180;29;20459;-81
2020/12/21 12:12:04;;;;;;;1.25;0.10;;;;;;;7.41;100.00;98278.91;4879027;29;20052;-80
2020/12/21 12:15:07;;;;;;;0.60;0.10;;;;;;;7.45;100.00;98285.75;4878952;29;20101;-79
2020/12/21 12:18:09;;;;;;;0.75;0.10;;;;;;;7.45;100.00;98279.47;4878690;29;20128;-79
2020/12/21 12:21:20;;;;;;;1.38;0.47;;;;;;;7.49;100.00;98269.66;4878693;29;20044;-79
2020/12/21 12:24:23;;;;;;;1.80;0.52;;;;;;;7.53;100.00;98274.97;4878710;29;20143;-80
2020/12/21 12:27:26;;;;;;;0.73;0.22;;;;;;;7.57;100.00;98270.72;4878306;29;20120;-81
2020/12/21 12:30:29;;;;;;;1.38;0.47;;;;;;;7.62;100.00;98272.75;4878051;29;20093;-83
2020/12/21 12:33:32;;;;;;;1.08;0.30;;;;;;;7.67;100.00;98273.31;4867274;29;20105;-83
2020/12/21 12:36:36;;;;;;;3.55;0.40;;;;;;;7.68;100.00;98285.91;4878776;29;20056;-81
2020/12/21 12:39:39;;;;;;;2.30;0.40;;;;;;;7.69;100.00;98273.56;4867010;29;20558;-80
2020/12/21 12:42:44;;;;;;;2.35;0.57;;;;;;;7.72;100.00;98264.25;4878227;29;20093;-80
2020/12/21 12:45:47;;;;;;;0.30;0.10;;;;;;;7.74;100.00;98265.28;4878463;29;20067;-79
2020/12/21 12:48:50;;;;;;;0.88;0.28;;;;;;;7.75;100.00;98254.97;4866875;29;20051;-78
2020/12/21 12:51:54;;;;;;;0.35;0.13;;;;;;;7.78;100.00;98253.97;4878316;29;20052;-78
2020/12/21 12:54:57;;;;;;;0.70;0.15;;;;;;;7.81;100.00;98244.66;4866901;29;20410;-78
2020/12/21 12:58:01;;;;;;;0.20;0.10;;;;;;;7.92;100.00;98247.50;4878547;29;20080;-78
2020/12/21 13:01:05;;;;;;;0.50;0.20;;;;;;;8.06;100.00;98244.53;4878377;29;20116;-78
2020/12/21 13:04:08;;;;;;;0.95;0.40;;;;;;;8.13;100.00;98246.84;4878368;29;20048;-78
2020/12/21 13:07:11;;;;;;;4.00;0.10;;;;;;;8.13;100.00;98244.06;4878451;29;20211;-78
2020/12/21 13:10:13;;;;;;;1.77;0.45;;;;;;;8.12;100.00;98247.34;4877516;29;20053;-78
2020/12/21 13:13:16;;;;;;;0.90;0.20;;;;;;;8.12;100.00;98244.56;4878362;29;20044;-77
2020/12/21 13:16:19;;;;;;;1.38;0.30;;;;;;;8.18;100.00;98246.13;4878292;29;20057;-75
2020/12/21 13:19:22;;;;;;;0.75;0.20;;;;;;;8.19;100.00;98246.84;4878737;29;20056;-75
2020/12/21 13:22:25;;;;;;;0.40;0.30;;;;;;;8.20;100.00;98248.38;4881516;29;20055;-76
2020/12/21 13:25:28;;;;;;;1.88;0.50;;;;;;;8.23;100.00;98247.38;4881898;29;20136;-77
2020/12/21 13:28:32;;;;;;;3.05;0.63;;;;;;;8.28;100.00;98249.44;4881519;29;20116;-77
2020/12/21 13:31:34;;;;;;;1.73;0.45;;;;;;;8.29;100.00;98237.84;4880914;29;20051;-76
2020/12/21 13:34:37;;;;;;;2.50;0.70;;;;;;;8.34;100.00;98236.34;4881769;29;20044;-75
2020/12/21 13:37:40;;;;;;;4.05;0.98;;;;;;;8.35;100.00;98226.78;4869999;29;20048;-75
2020/12/21 13:40:43;;;;;;;1.95;0.43;;;;;;;8.35;100.00;98232.31;4881510;29;20067;-77
2020/12/21 13:43:45;;;;;;;3.03;0.22;;;;;;;8.34;100.00;98228.03;4881347;29;20620;-76
2020/12/21 13:46:48;;;;;;;2.22;0.30;;;;;;;8.34;100.00;98228.78;4881418;29;20060;-76
2020/12/21 13:49:51;;;;;;;2.38;0.20;;;;;;;8.35;100.00;98216.44;4887009;29;20104;-77
2020/12/21 13:52:54;;;;;;;0.90;0.20;;;;;;;8.37;100.00;98213.16;4886441;29;20055;-78
2020/12/21 13:55:57;;;;;;;1.55;0.50;;;;;;;8.35;100.00;98216.44;4886400;29;20064;-76
2020/12/21 13:59:00;;;;;;;0.93;0.40;;;;;;;8.42;100.00;98215.22;4890638;29;20047;-76
2020/12/21 14:02:03;;;;;;;4.00;0.40;;;;;;;8.40;100.00;98217.72;4886276;29;20040;-76
2020/12/21 14:05:06;;;;;;;4.05;0.60;;;;;;;8.37;100.00;98225.03;4862470;29;20509;-76
2020/12/21 14:08:08;;;;;;;6.70;1.08;;;;;;;8.39;100.00;98221.75;4862477;29;20125;-78
2020/12/21 14:11:12;;;;;;;4.80;0.63;;;;;;;8.38;100.00;98220.25;4862343;29;20406;-77
2020/12/21 14:14:14;;;;;;;4.55;0.20;;;;;;;8.39;100.00;98216.97;4869008;29;20517;-78
2020/12/21 14:17:17;;;;;;;1.15;0.22;;;;;;;8.42;100.00;98220.00;4879128;29;20509;-78
2020/12/21 14:20:20;;;;;;;7.90;0.80;;;;;;;8.45;100.00;98219.75;4877429;29;20523;-78
2020/12/21 14:23:23;;;;;;;1.13;0.45;;;;;;;8.54;100.00;98205.63;4879371;29;20043;-78